首页
METAR-TAF:

METAR-TAF

机场 :

安東尼奧·汪帕特國際機場

阿加尼亚, 關島, 美国

纬度: 13-29N, 经度: 144-48E, 海拔: 91米

当前天气观测

该预报发布于35分钟前的18:54 UTC
风速4节,风向东转东南
温度 26°C
湿度 84%
气压 1012 hPa
能見度: 16.1公里
天空无云

METAR: PGUM 231854Z 11004KT 10SM CLR 26/23 A2987 RMK AO2 SLP105 T02610233

时间: 05:29 (19:29 UTC)

预报

该预报发布于1小时和58分钟前的17:31 UTC
预报有效从23日的 18点(UTC)到 24日的 24点(UTC)
风速5节,风向多变
能見度: 10公里
少量云层高于2000英尺
多云层高于5000英尺
附近有阵雨
从 23日的 2200点(UTC)
风速6节,风向多变
能見度: 10公里
散云层高于2000英尺
散云层高于5000英尺
多云层高于10000英尺
附近有阵雨
短暂存在
从 24日的 02点(UTC)到 24日的 06点(UTC)
能見度: 3.2公里
多云层高于1500英尺
阴天层高于2500英尺
大阵雨
从 24日的 1000点(UTC)
风速5节,风向多变
能見度: 10公里
少量云层高于2000英尺
多云层高于6000英尺

TAF: PGUM 231731Z 2318/2424 VRB05KT P6SM VCSH FEW020 BKN050 FM232200 VRB06KT P6SM VCSH SCT020 SCT050 BKN100 TEMPO 2402/2406 2SM +SHRA BKN015 OVC025 FM241000 VRB05KT P6SM FEW020 BKN060

超过4000个机场的气象观测和天气预报(METAR&TAF报告)。

可查询的气象台以黄色和红色小点在地图上表示。

将鼠标移到小点上方,可查看气象台名称。

然后点击查看天气观测和预报。

如需切换地图:点击带黑十字的绿色按钮放大地图;点击带横线的绿色按钮缩小地图;或者点击绿色箭头查看邻近地区的地图。


METAR-TAF: